createdAt,value
2023-01-07T00:02:22.052Z,8.30
2023-01-07T00:04:48.558Z,8.98
2023-01-07T00:07:14.988Z,8.43
2023-01-07T00:09:41.988Z,8.90
2023-01-07T00:12:08.668Z,8.27
2023-01-07T00:14:35.810Z,8.02
2023-01-07T00:17:02.279Z,8.02
2023-01-07T00:19:28.794Z,8.45
2023-01-07T00:21:55.459Z,7.88
2023-01-07T00:24:21.870Z,8.30
2023-01-07T00:26:48.897Z,8.43
2023-01-07T00:29:15.554Z,8.10
2023-01-07T00:31:42.558Z,8.27
2023-01-07T00:34:09.616Z,7.78
2023-01-07T00:36:36.153Z,8.13
2023-01-07T00:39:02.882Z,7.78
2023-01-07T00:41:29.239Z,7.65
2023-01-07T00:43:55.666Z,7.93
2023-01-07T00:46:22.189Z,7.53
2023-01-07T00:48:48.722Z,7.38
2023-01-07T00:51:15.660Z,7.57
2023-01-07T00:53:42.208Z,7.18
2023-01-07T00:56:08.543Z,7.30
2023-01-07T00:58:35.684Z,7.60
2023-01-07T01:01:02.256Z,7.13
2023-01-07T01:03:29.245Z,6.90
2023-01-07T01:05:55.650Z,7.47
2023-01-07T01:08:21.998Z,7.55
2023-01-07T01:10:48.670Z,7.32
2023-01-07T01:13:17.312Z,7.53
2023-01-07T01:15:44.530Z,7.43
2023-01-07T01:18:11.084Z,7.22
2023-01-07T01:20:37.902Z,7.00
2023-01-07T01:23:04.275Z,7.07
2023-01-07T01:25:30.969Z,6.85
2023-01-07T01:27:57.853Z,6.80
2023-01-07T01:30:24.932Z,6.63
2023-01-07T01:32:51.902Z,6.40
2023-01-07T01:35:18.740Z,7.00
2023-01-07T01:37:45.616Z,7.05
2023-01-07T01:40:11.991Z,6.22
2023-01-07T01:42:38.328Z,6.60
2023-01-07T01:45:05.117Z,6.90
2023-01-07T01:47:31.624Z,6.50
2023-01-07T01:49:58.068Z,6.30
2023-01-07T01:52:24.442Z,6.63
2023-01-07T01:54:50.873Z,6.43
2023-01-07T01:57:17.624Z,6.03
2023-01-07T01:59:44.486Z,6.30
2023-01-07T02:02:10.951Z,6.07
2023-01-07T02:04:38.647Z,6.03
2023-01-07T02:07:05.385Z,6.03
2023-01-07T02:09:32.538Z,5.75
2023-01-07T02:11:59.151Z,5.95
2023-01-07T02:14:25.946Z,6.07
2023-01-07T02:16:52.410Z,5.50
2023-01-07T02:19:18.993Z,5.55
2023-01-07T02:21:45.910Z,6.28
2023-01-07T02:24:13.605Z,5.75
2023-01-07T02:26:40.697Z,5.60
2023-01-07T02:29:07.203Z,5.07
2023-01-07T02:31:34.183Z,5.88
2023-01-07T02:34:00.997Z,5.72
2023-01-07T02:36:27.414Z,5.72
2023-01-07T02:38:53.805Z,5.47
2023-01-07T02:41:20.468Z,5.38
2023-01-07T02:43:47.142Z,5.60
2023-01-07T02:46:14.268Z,5.53
2023-01-07T02:48:40.788Z,5.65
2023-01-07T02:51:07.551Z,5.38
2023-01-07T02:53:33.964Z,5.53
2023-01-07T02:56:00.484Z,5.70
2023-01-07T02:58:27.178Z,5.55
2023-01-07T03:00:53.916Z,5.75
2023-01-07T03:03:21.241Z,5.03
2023-01-07T03:05:48.063Z,5.40
2023-01-07T03:08:15.035Z,5.45
2023-01-07T03:10:41.919Z,5.55
2023-01-07T03:13:09.035Z,5.00
2023-01-07T03:15:35.582Z,5.30
2023-01-07T03:18:03.187Z,4.95
2023-01-07T03:20:29.830Z,5.40
2023-01-07T03:22:56.725Z,4.90
2023-01-07T03:25:23.592Z,4.63
2023-01-07T03:27:50.493Z,5.28
2023-01-07T03:30:16.807Z,5.05
2023-01-07T03:32:43.198Z,4.90
2023-01-07T03:35:10.140Z,4.70
2023-01-07T03:37:36.607Z,5.03
2023-01-07T03:40:03.332Z,4.80
2023-01-07T03:42:29.792Z,4.72
2023-01-07T03:44:56.532Z,4.78
2023-01-07T03:47:23.101Z,5.07
2023-01-07T03:49:49.461Z,5.25
2023-01-07T03:52:16.137Z,4.43
2023-01-07T03:54:42.908Z,4.30
2023-01-07T03:57:09.798Z,4.60
2023-01-07T03:59:36.228Z,4.60
2023-01-07T04:02:03.326Z,4.15
2023-01-07T04:04:30.412Z,4.47
2023-01-07T04:06:57.073Z,4.78
2023-01-07T04:09:23.511Z,4.22
2023-01-07T04:11:50.094Z,4.22
2023-01-07T04:14:16.765Z,4.15
2023-01-07T04:16:43.651Z,4.32
2023-01-07T04:19:10.084Z,4.68
2023-01-07T04:21:37.209Z,4.55
2023-01-07T04:24:03.655Z,3.90
2023-01-07T04:26:30.257Z,4.30
2023-01-07T04:28:57.159Z,4.22
2023-01-07T04:31:24.165Z,4.30
2023-01-07T04:33:50.934Z,4.35
2023-01-07T04:36:17.445Z,4.30
2023-01-07T04:38:45.414Z,4.82
2023-01-07T04:41:12.060Z,4.30
2023-01-07T04:43:38.631Z,4.10
2023-01-07T04:46:05.312Z,3.72
2023-01-07T04:48:31.820Z,4.00
2023-01-07T04:50:58.185Z,4.35
2023-01-07T04:53:24.819Z,4.32
2023-01-07T04:55:51.337Z,3.78
2023-01-07T04:58:17.876Z,3.65
2023-01-07T05:00:44.319Z,4.00
2023-01-07T05:03:11.221Z,3.95
2023-01-07T05:05:38.231Z,4.00
2023-01-07T05:08:04.569Z,3.95
2023-01-07T05:10:30.998Z,4.20
2023-01-07T05:12:57.519Z,3.80
2023-01-07T05:15:24.009Z,3.97
2023-01-07T05:17:50.732Z,3.70
2023-01-07T05:20:17.250Z,3.97
2023-01-07T05:22:43.569Z,3.90
2023-01-07T05:25:10.066Z,3.78
2023-01-07T05:27:36.578Z,3.83
2023-01-07T05:30:03.251Z,3.75
2023-01-07T05:32:29.885Z,3.95
2023-01-07T05:34:56.233Z,3.53
2023-01-07T05:37:22.806Z,4.03
2023-01-07T05:39:49.252Z,3.75
2023-01-07T05:42:15.884Z,3.75
2023-01-07T05:44:42.176Z,4.05
2023-01-07T05:47:08.550Z,3.70
2023-01-07T05:49:35.039Z,3.78
2023-01-07T05:52:01.354Z,4.03
2023-01-07T05:54:27.735Z,3.88
2023-01-07T05:56:54.252Z,3.92
2023-01-07T05:59:20.672Z,3.58
2023-01-07T06:01:47.361Z,3.25
2023-01-07T06:04:13.714Z,3.70
2023-01-07T06:06:39.998Z,3.90
2023-01-07T06:09:06.317Z,3.72
2023-01-07T06:11:32.834Z,3.60
2023-01-07T06:13:59.235Z,3.70
2023-01-07T06:16:25.664Z,3.42
2023-01-07T06:18:52.102Z,3.70
2023-01-07T06:21:19.048Z,4.10
2023-01-07T06:23:45.519Z,3.47
2023-01-07T06:26:12.232Z,3.65
2023-01-07T06:28:38.934Z,3.33
2023-01-07T06:31:05.669Z,3.40
2023-01-07T06:33:33.528Z,3.20
2023-01-07T06:36:00.430Z,3.53
2023-01-07T06:38:27.061Z,3.70
2023-01-07T06:40:53.726Z,3.88
2023-01-07T06:43:20.064Z,3.70
2023-01-07T06:45:46.848Z,3.33
2023-01-07T06:48:13.346Z,3.08
2023-01-07T06:50:40.001Z,3.45
2023-01-07T06:53:06.489Z,3.20
2023-01-07T06:55:33.103Z,3.72
2023-01-07T06:57:59.823Z,3.78
2023-01-07T07:00:26.238Z,3.35
2023-01-07T07:02:52.860Z,3.22
2023-01-07T07:05:19.225Z,2.95
2023-01-07T07:07:45.891Z,3.20
2023-01-07T07:10:12.398Z,3.55
2023-01-07T07:12:39.067Z,3.60
2023-01-07T07:15:05.500Z,3.38
2023-01-07T07:17:31.891Z,3.10
2023-01-07T07:19:58.467Z,3.35
2023-01-07T07:22:24.794Z,3.28
2023-01-07T07:24:51.261Z,3.30
2023-01-07T07:27:17.673Z,3.10
2023-01-07T07:29:44.291Z,3.20
2023-01-07T07:32:10.630Z,3.55
2023-01-07T07:34:37.072Z,3.28
2023-01-07T07:37:03.406Z,3.40
2023-01-07T07:39:29.840Z,3.30
2023-01-07T07:41:56.553Z,3.20
2023-01-07T07:44:23.088Z,3.13
2023-01-07T07:46:49.515Z,3.25
2023-01-07T07:49:16.126Z,3.20
2023-01-07T07:51:42.454Z,3.17
2023-01-07T07:54:09.384Z,3.22
2023-01-07T07:56:36.143Z,3.10
2023-01-07T07:59:02.966Z,2.95
2023-01-07T08:01:29.582Z,3.25
2023-01-07T08:03:56.147Z,3.92
2023-01-07T08:06:22.560Z,3.42
2023-01-07T08:08:49.067Z,2.55
2023-01-07T08:11:15.713Z,3.00
2023-01-07T08:13:42.317Z,3.15
2023-01-07T08:16:08.992Z,2.85
2023-01-07T08:18:35.923Z,3.05
2023-01-07T08:21:02.304Z,2.85
2023-01-07T08:23:29.302Z,2.83
2023-01-07T08:25:55.877Z,2.90
2023-01-07T08:28:22.214Z,2.88
2023-01-07T08:30:48.641Z,2.90
2023-01-07T08:33:14.932Z,2.92
2023-01-07T08:35:41.592Z,2.67
2023-01-07T08:38:08.084Z,2.67
2023-01-07T08:40:34.923Z,2.80
2023-01-07T08:43:01.530Z,2.80
2023-01-07T08:45:28.013Z,2.83
2023-01-07T08:47:54.414Z,3.20
2023-01-07T08:50:21.159Z,2.83
2023-01-07T08:52:47.928Z,2.63
2023-01-07T08:55:14.742Z,2.83
2023-01-07T08:57:41.088Z,2.55
2023-01-07T09:00:07.918Z,2.47
2023-01-07T09:02:34.799Z,2.65
2023-01-07T09:05:01.359Z,2.72
2023-01-07T09:07:27.726Z,2.70
2023-01-07T09:09:54.055Z,2.60
2023-01-07T09:12:20.571Z,2.85
2023-01-07T09:14:47.201Z,2.58
2023-01-07T09:17:15.835Z,2.60
2023-01-07T09:19:42.214Z,2.67
2023-01-07T09:22:08.831Z,2.67
2023-01-07T09:24:35.230Z,2.80
2023-01-07T09:27:01.573Z,2.55
2023-01-07T09:29:28.128Z,2.92
2023-01-07T09:31:54.549Z,2.72
2023-01-07T09:34:21.169Z,2.88
2023-01-07T09:36:47.601Z,3.15
2023-01-07T09:39:13.943Z,2.63
2023-01-07T09:41:40.447Z,2.90
2023-01-07T09:44:07.392Z,3.00
2023-01-07T09:46:33.853Z,2.65
2023-01-07T09:49:00.220Z,3.35
2023-01-07T09:51:27.378Z,2.70
2023-01-07T09:53:53.831Z,2.85
2023-01-07T09:56:20.085Z,2.90
2023-01-07T09:58:46.819Z,2.80
2023-01-07T10:01:13.379Z,2.88
2023-01-07T10:03:39.953Z,2.83
2023-01-07T10:06:06.580Z,2.80
2023-01-07T10:08:33.355Z,2.97
2023-01-07T10:10:59.740Z,2.78
2023-01-07T10:13:26.122Z,2.70
2023-01-07T10:15:52.602Z,2.60
2023-01-07T10:18:19.121Z,3.00
2023-01-07T10:20:45.506Z,2.72
2023-01-07T10:23:11.974Z,2.80
2023-01-07T10:25:38.552Z,2.90
2023-01-07T10:28:05.496Z,8.35
2023-01-07T10:30:31.818Z,5.28
2023-01-07T10:32:58.152Z,5.07
2023-01-07T10:35:24.499Z,5.35
2023-01-07T10:37:51.142Z,4.80
2023-01-07T10:40:17.909Z,5.05
2023-01-07T10:42:44.483Z,4.93
2023-01-07T10:45:11.447Z,4.10
2023-01-07T10:47:37.851Z,4.72
2023-01-07T10:50:04.408Z,4.53
2023-01-07T10:52:30.910Z,4.38
2023-01-07T10:54:57.767Z,3.92
2023-01-07T10:57:24.441Z,4.50
2023-01-07T10:59:50.953Z,4.25
2023-01-07T11:02:18.062Z,4.13
2023-01-07T11:04:46.306Z,4.15
2023-01-07T11:07:12.814Z,4.00
2023-01-07T11:09:39.422Z,4.20
2023-01-07T11:12:06.145Z,4.30
2023-01-07T11:14:32.773Z,4.65
2023-01-07T11:16:59.183Z,4.22
2023-01-07T11:19:25.680Z,3.65
2023-01-07T11:21:52.081Z,3.90
2023-01-07T11:24:18.557Z,4.18
2023-01-07T11:26:44.935Z,4.03
2023-01-07T11:29:11.260Z,4.53
2023-01-07T11:31:38.238Z,4.03
2023-01-07T11:34:04.869Z,4.28
2023-01-07T11:36:31.452Z,11.73
2023-01-07T11:38:57.937Z,35.75
2023-01-07T11:41:24.413Z,43.88
2023-01-07T11:43:51.235Z,31.02
2023-01-07T11:46:20.866Z,25.95
2023-01-07T11:48:48.236Z,29.33
2023-01-07T11:51:14.900Z,28.73
2023-01-07T11:53:41.493Z,27.83
2023-01-07T11:56:08.165Z,26.85
2023-01-07T11:58:34.856Z,27.30
2023-01-07T12:01:01.481Z,25.42
2023-01-07T12:03:28.313Z,24.60
2023-01-07T12:05:55.025Z,25.50
2023-01-07T12:08:21.601Z,24.90
2023-01-07T12:10:48.201Z,24.67
2023-01-07T12:13:15.741Z,23.67
2023-01-07T12:15:42.195Z,24.05
2023-01-07T12:18:08.804Z,23.08
2023-01-07T12:20:35.237Z,22.30
2023-01-07T12:23:01.959Z,21.60
2023-01-07T12:25:28.530Z,22.08
2023-01-07T12:27:55.170Z,22.02
2023-01-07T12:30:21.522Z,22.42
2023-01-07T12:32:47.926Z,22.13
2023-01-07T12:35:15.697Z,22.65
2023-01-07T12:37:42.472Z,21.10
2023-01-07T12:40:08.868Z,21.73
2023-01-07T12:42:35.501Z,21.08
2023-01-07T12:45:02.063Z,20.50
2023-01-07T12:47:30.445Z,20.95
2023-01-07T12:49:59.094Z,19.30
2023-01-07T12:52:26.006Z,20.00
2023-01-07T12:54:52.503Z,19.55
2023-01-07T12:57:19.048Z,19.17
2023-01-07T12:59:48.098Z,19.65
2023-01-07T13:02:15.030Z,19.30
2023-01-07T13:04:41.557Z,18.40
2023-01-07T13:07:08.039Z,17.77
2023-01-07T13:09:34.485Z,19.17
2023-01-07T13:12:00.846Z,18.15
2023-01-07T13:14:27.206Z,18.67
2023-01-07T13:16:53.569Z,17.90
2023-01-07T13:19:20.049Z,17.85
2023-01-07T13:21:46.755Z,17.60
2023-01-07T13:24:13.192Z,18.13
2023-01-07T13:26:40.008Z,17.50
2023-01-07T13:29:06.673Z,17.08
2023-01-07T13:31:33.321Z,16.75
2023-01-07T13:34:00.181Z,16.80
2023-01-07T13:36:27.706Z,17.02
2023-01-07T13:38:54.033Z,16.98
2023-01-07T13:41:20.595Z,17.20
2023-01-07T13:43:46.945Z,17.00
2023-01-07T13:46:13.758Z,16.45
2023-01-07T13:48:40.300Z,16.40
2023-01-07T13:51:06.975Z,16.10
2023-01-07T13:53:33.529Z,16.05
2023-01-07T13:55:59.916Z,15.52
2023-01-07T13:58:26.393Z,15.57
2023-01-07T14:00:52.851Z,14.70
2023-01-07T14:03:19.505Z,15.73
2023-01-07T14:05:46.044Z,14.27
2023-01-07T14:08:12.327Z,14.32
2023-01-07T14:10:38.666Z,14.85
2023-01-07T14:13:04.953Z,15.05
2023-01-07T14:15:31.468Z,14.52
2023-01-07T14:17:57.859Z,14.18
2023-01-07T14:20:24.530Z,14.27
2023-01-07T14:22:51.286Z,14.25
2023-01-07T14:25:17.857Z,13.43
2023-01-07T14:27:44.544Z,13.95
2023-01-07T14:30:16.298Z,12.90
2023-01-07T14:32:43.369Z,12.77
2023-01-07T14:35:09.961Z,13.48
2023-01-07T14:37:36.446Z,12.52
2023-01-07T14:40:03.036Z,12.98
2023-01-07T14:42:29.724Z,12.60
2023-01-07T14:44:56.221Z,13.48
2023-01-07T14:47:22.587Z,11.95
2023-01-07T14:49:48.988Z,12.02
2023-01-07T14:52:15.414Z,12.63
2023-01-07T14:54:42.076Z,11.95
2023-01-07T14:57:08.708Z,11.93
2023-01-07T14:59:35.586Z,13.05
2023-01-07T15:02:02.617Z,11.90
2023-01-07T15:04:31.358Z,12.23
2023-01-07T15:06:58.808Z,12.13
2023-01-07T15:09:25.081Z,12.30
2023-01-07T15:11:51.934Z,11.90
2023-01-07T15:14:18.576Z,12.25
2023-01-07T15:16:45.898Z,11.90
2023-01-07T15:19:12.787Z,11.32
2023-01-07T15:21:39.085Z,11.18
2023-01-07T15:24:05.442Z,11.43
2023-01-07T15:26:32.098Z,10.90
2023-01-07T15:28:58.487Z,11.15
2023-01-07T15:31:24.976Z,10.75
2023-01-07T15:33:51.440Z,11.13
2023-01-07T15:36:18.244Z,10.25
2023-01-07T15:38:44.878Z,10.27
2023-01-07T15:41:11.720Z,11.52
2023-01-07T15:43:38.658Z,10.10
2023-01-07T15:46:05.113Z,10.23
2023-01-07T15:48:31.618Z,10.02
2023-01-07T15:50:58.215Z,9.90
2023-01-07T15:53:25.007Z,9.88
2023-01-07T15:55:51.529Z,9.75
2023-01-07T15:58:18.190Z,9.43
2023-01-07T16:00:44.987Z,9.70
2023-01-07T16:03:11.628Z,9.60
2023-01-07T16:05:38.057Z,9.80
2023-01-07T16:08:04.816Z,9.32
2023-01-07T16:10:31.199Z,9.63
2023-01-07T16:12:58.271Z,9.60
2023-01-07T16:15:24.583Z,9.93
2023-01-07T16:17:51.283Z,10.07
2023-01-07T16:20:17.986Z,8.63
2023-01-07T16:22:44.389Z,9.02
2023-01-07T16:25:10.745Z,8.52
2023-01-07T16:27:37.348Z,8.98
2023-01-07T16:30:03.966Z,8.63
2023-01-07T16:32:30.667Z,9.02
2023-01-07T16:34:57.049Z,9.27
2023-01-07T16:37:23.570Z,12.32
2023-01-07T16:39:50.427Z,34.55
2023-01-07T16:42:16.820Z,57.90
2023-01-07T16:44:43.489Z,36.03
2023-01-07T16:47:10.165Z,34.63
2023-01-07T16:49:37.042Z,31.10
2023-01-07T16:52:03.668Z,26.67
2023-01-07T16:54:30.351Z,23.30
2023-01-07T16:56:57.026Z,21.75
2023-01-07T16:59:24.139Z,18.80
2023-01-07T17:01:50.707Z,17.92
2023-01-07T17:04:17.291Z,15.65
2023-01-07T17:06:43.814Z,15.35
2023-01-07T17:09:10.344Z,11.77
2023-01-07T17:11:36.979Z,12.40
2023-01-07T17:14:03.293Z,10.98
2023-01-07T17:16:29.918Z,10.80
2023-01-07T17:18:56.635Z,10.05
2023-01-07T17:21:23.435Z,8.98
2023-01-07T17:23:49.987Z,8.57
2023-01-07T17:26:16.321Z,8.68
2023-01-07T17:28:43.003Z,8.40
2023-01-07T17:31:09.457Z,7.45
2023-01-07T17:33:36.070Z,7.40
2023-01-07T17:36:02.491Z,7.15
2023-01-07T17:38:28.851Z,6.57
2023-01-07T17:40:55.806Z,31.92
2023-01-07T17:43:22.480Z,32.22
2023-01-07T17:45:49.355Z,26.05
2023-01-07T17:48:15.731Z,24.20
2023-01-07T17:50:42.281Z,22.67
2023-01-07T17:53:08.553Z,22.00
2023-01-07T17:55:35.490Z,19.83
2023-01-07T17:58:01.914Z,18.33
2023-01-07T18:00:28.376Z,18.52
2023-01-07T18:02:55.113Z,17.77
2023-01-07T18:05:21.793Z,17.63
2023-01-07T18:07:48.643Z,14.85
2023-01-07T18:10:15.444Z,14.00
2023-01-07T18:12:42.133Z,15.35
2023-01-07T18:15:08.620Z,14.02
2023-01-07T18:17:34.923Z,13.73
2023-01-07T18:20:01.421Z,12.57
2023-01-07T18:22:28.547Z,12.95
2023-01-07T18:24:55.047Z,11.63
2023-01-07T18:27:21.418Z,11.32
2023-01-07T18:29:47.786Z,10.50
2023-01-07T18:32:14.152Z,10.77
2023-01-07T18:34:40.709Z,10.13
2023-01-07T18:37:07.542Z,8.82
2023-01-07T18:39:33.973Z,9.23
2023-01-07T18:42:00.329Z,8.95
2023-01-07T18:44:26.975Z,8.25
2023-01-07T18:46:53.419Z,7.72
2023-01-07T18:49:20.663Z,7.65
2023-01-07T18:51:47.855Z,8.48
2023-01-07T18:54:14.730Z,7.43
2023-01-07T18:56:41.406Z,6.72
2023-01-07T18:59:07.909Z,7.10
2023-01-07T19:01:34.649Z,7.22
2023-01-07T19:04:01.362Z,6.50
2023-01-07T19:06:27.996Z,6.72
2023-01-07T19:08:54.528Z,7.32
2023-01-07T19:11:21.205Z,6.13
2023-01-07T19:13:47.770Z,6.03
2023-01-07T19:16:14.400Z,6.43
2023-01-07T19:18:41.279Z,6.10
2023-01-07T19:21:07.664Z,5.15
2023-01-07T19:23:34.291Z,5.28
2023-01-07T19:26:00.775Z,5.57
2023-01-07T19:28:27.159Z,5.38
2023-01-07T19:30:53.509Z,4.68
2023-01-07T19:33:19.912Z,5.05
2023-01-07T19:35:46.633Z,4.75
2023-01-07T19:38:13.191Z,4.97
2023-01-07T19:40:39.701Z,9.10
2023-01-07T19:43:06.794Z,15.38
2023-01-07T19:45:33.730Z,13.75
2023-01-07T19:48:00.246Z,12.98
2023-01-07T19:50:27.053Z,12.65
2023-01-07T19:52:54.573Z,11.57
2023-01-07T19:55:21.086Z,11.02
2023-01-07T19:57:47.801Z,9.95
2023-01-07T20:00:14.699Z,9.50
2023-01-07T20:02:41.176Z,8.48
2023-01-07T20:05:07.555Z,8.73
2023-01-07T20:07:34.388Z,7.95
2023-01-07T20:10:01.002Z,7.78
2023-01-07T20:12:27.863Z,7.63
2023-01-07T20:14:54.398Z,7.55
2023-01-07T20:17:21.162Z,6.82
2023-01-07T20:19:47.600Z,7.60
2023-01-07T20:22:13.920Z,6.70
2023-01-07T20:24:40.622Z,6.35
2023-01-07T20:27:07.812Z,5.35
2023-01-07T20:29:34.198Z,6.00
2023-01-07T20:32:00.779Z,5.95
2023-01-07T20:34:27.660Z,5.35
2023-01-07T20:36:54.178Z,5.90
2023-01-07T20:39:20.736Z,5.40
2023-01-07T20:41:47.956Z,5.28
2023-01-07T20:44:14.256Z,4.88
2023-01-07T20:46:40.884Z,4.85
2023-01-07T20:49:07.236Z,4.55
2023-01-07T20:51:33.960Z,4.43
2023-01-07T20:54:01.486Z,4.82
2023-01-07T20:56:27.740Z,4.85
2023-01-07T20:58:54.115Z,4.03
2023-01-07T21:01:21.215Z,3.97
2023-01-07T21:03:48.057Z,3.80
2023-01-07T21:06:14.627Z,4.40
2023-01-07T21:08:41.103Z,3.40
2023-01-07T21:11:07.625Z,3.38
2023-01-07T21:13:34.261Z,3.90
2023-01-07T21:16:00.795Z,3.80
2023-01-07T21:18:27.780Z,56.42
2023-01-07T21:20:54.941Z,79.75
2023-01-07T21:23:21.351Z,63.10
2023-01-07T21:25:47.790Z,58.35
2023-01-07T21:28:14.639Z,55.50
2023-01-07T21:30:41.017Z,67.75
2023-01-07T21:33:07.423Z,163.40
2023-01-07T21:35:33.804Z,148.07
2023-01-07T21:38:00.745Z,134.75
2023-01-07T21:40:27.425Z,129.10
2023-01-07T21:42:53.818Z,119.20
2023-01-07T21:45:20.867Z,113.63
2023-01-07T21:47:47.787Z,105.07
2023-01-07T21:50:14.271Z,97.63
2023-01-07T21:52:41.179Z,89.78
2023-01-07T21:55:07.872Z,89.97
2023-01-07T21:57:34.233Z,220.70
2023-01-07T22:00:01.026Z,204.32
2023-01-07T22:02:28.276Z,178.35
2023-01-07T22:04:54.736Z,164.93
2023-01-07T22:07:21.161Z,150.52
2023-01-07T22:09:48.747Z,135.35
2023-01-07T22:12:15.821Z,127.05
2023-01-07T22:14:42.761Z,173.68
2023-01-07T22:17:09.702Z,186.65
2023-01-07T22:19:36.282Z,172.07
2023-01-07T22:22:02.637Z,166.00
2023-01-07T22:24:29.299Z,164.15
2023-01-07T22:26:55.898Z,156.35
2023-01-07T22:29:22.283Z,153.38
2023-01-07T22:31:48.941Z,155.70
2023-01-07T22:34:15.627Z,149.25
2023-01-07T22:36:41.955Z,148.35
2023-01-07T22:39:08.373Z,144.13
2023-01-07T22:41:35.079Z,140.68
2023-01-07T22:44:01.894Z,139.00
2023-01-07T22:46:28.289Z,136.40
2023-01-07T22:48:54.795Z,134.30
2023-01-07T22:51:21.651Z,133.32
2023-01-07T22:53:48.277Z,128.68
2023-01-07T22:56:14.739Z,126.82
2023-01-07T22:58:41.091Z,124.47
2023-01-07T23:01:07.977Z,124.20
2023-01-07T23:03:35.695Z,120.75
2023-01-07T23:06:02.472Z,118.10
2023-01-07T23:08:29.348Z,117.28
2023-01-07T23:10:55.921Z,114.55
2023-01-07T23:13:22.789Z,108.35
2023-01-07T23:15:50.105Z,111.10
2023-01-07T23:18:17.341Z,106.32
2023-01-07T23:20:44.557Z,107.78
2023-01-07T23:23:11.095Z,101.28
2023-01-07T23:25:37.718Z,101.82
2023-01-07T23:28:04.208Z,102.25
2023-01-07T23:30:30.735Z,94.97
2023-01-07T23:32:57.937Z,96.38
2023-01-07T23:35:24.731Z,95.03
2023-01-07T23:37:51.291Z,94.55
2023-01-07T23:40:17.787Z,90.85
2023-01-07T23:42:44.801Z,89.88
2023-01-07T23:45:11.248Z,89.75
2023-01-07T23:47:37.665Z,86.50
2023-01-07T23:50:04.124Z,83.90
2023-01-07T23:52:30.929Z,83.28
2023-01-07T23:54:57.287Z,82.38
2023-01-07T23:57:23.809Z,79.00
2023-01-07T23:59:50.836Z,79.82
